createdAt,value
2023-03-03T00:05:07.953Z,62.90
2023-03-03T00:10:43.745Z,66.40
2023-03-03T00:15:40.729Z,64.20
2023-03-03T00:20:38.051Z,62.30
2023-03-03T00:30:29.239Z,61.90
2023-03-03T00:35:30.504Z,61.50
2023-03-03T00:40:27.690Z,62.10
2023-03-03T00:45:41.034Z,60.30
2023-03-03T00:50:36.206Z,60.00
2023-03-03T00:55:29.813Z,58.30
2023-03-03T01:00:22.605Z,59.00
2023-03-03T01:05:18.086Z,56.40
2023-03-03T01:10:12.196Z,55.00
2023-03-03T01:15:05.651Z,57.20
2023-03-03T01:19:58.403Z,57.40
2023-03-03T01:24:51.160Z,57.10
2023-03-03T01:29:44.161Z,57.30
2023-03-03T01:34:36.897Z,57.50
2023-03-03T01:39:29.843Z,56.40
2023-03-03T01:44:22.531Z,54.40
2023-03-03T01:49:37.810Z,57.80
2023-03-03T01:54:56.579Z,59.10
2023-03-03T01:59:52.097Z,54.00
2023-03-03T02:04:44.775Z,56.10
2023-03-03T02:10:01.097Z,53.00
2023-03-03T02:14:56.170Z,52.70
2023-03-03T02:19:59.422Z,50.60
2023-03-03T02:25:00.097Z,51.20
2023-03-03T02:29:52.961Z,51.40
2023-03-03T02:34:52.142Z,51.10
2023-03-03T02:39:45.523Z,52.30
2023-03-03T02:44:38.882Z,52.70
2023-03-03T02:49:35.395Z,55.20
2023-03-03T02:54:31.332Z,53.30
2023-03-03T02:59:24.621Z,53.70
2023-03-03T03:04:21.704Z,53.30
2023-03-03T03:09:17.108Z,54.40
2023-03-03T03:14:12.035Z,54.70
2023-03-03T03:19:06.081Z,57.00
2023-03-03T03:24:00.181Z,54.80
2023-03-03T03:28:54.185Z,54.20
2023-03-03T03:33:47.467Z,59.60
2023-03-03T03:38:41.070Z,55.90
2023-03-03T03:43:34.754Z,55.00
2023-03-03T03:48:29.252Z,59.20
2023-03-03T03:53:22.539Z,51.20
2023-03-03T03:58:17.519Z,46.80
2023-03-03T04:03:14.593Z,48.20
2023-03-03T04:08:09.028Z,44.30
2023-03-03T04:13:02.588Z,58.40
2023-03-03T04:17:55.704Z,53.80
2023-03-03T04:22:48.412Z,48.50
2023-03-03T04:27:41.446Z,52.30
2023-03-03T04:32:35.444Z,44.60
2023-03-03T04:37:29.504Z,50.50
2023-03-03T04:42:22.426Z,47.60
2023-03-03T04:47:15.455Z,46.10
2023-03-03T04:52:08.884Z,44.50
2023-03-03T04:57:03.480Z,43.10
2023-03-03T05:01:56.522Z,41.20
2023-03-03T05:06:49.389Z,41.40
2023-03-03T05:11:44.425Z,40.90
2023-03-03T05:16:37.062Z,40.40
2023-03-03T05:21:29.818Z,42.00
2023-03-03T05:26:22.522Z,40.70
2023-03-03T05:31:57.090Z,40.50
2023-03-03T05:37:09.874Z,39.30
2023-03-03T05:42:19.397Z,38.80
2023-03-03T05:47:31.720Z,36.60
2023-03-03T05:52:53.750Z,39.60
2023-03-03T05:57:53.985Z,35.90
2023-03-03T06:02:47.151Z,37.70
2023-03-03T06:07:40.182Z,37.20
2023-03-03T06:12:32.925Z,40.10
2023-03-03T06:17:25.575Z,40.80
2023-03-03T06:22:20.929Z,42.00
2023-03-03T06:27:13.576Z,41.10
2023-03-03T06:32:06.924Z,40.30
2023-03-03T06:36:59.827Z,40.20
2023-03-03T06:41:52.445Z,42.10
2023-03-03T06:46:45.187Z,44.00
2023-03-03T06:51:40.456Z,46.60
2023-03-03T06:56:54.561Z,42.90
2023-03-03T07:07:32.894Z,42.40
2023-03-03T07:12:33.714Z,42.40
2023-03-03T07:17:26.879Z,40.00
2023-03-03T07:22:26.388Z,39.10
2023-03-03T07:27:28.164Z,38.70
2023-03-03T07:32:26.686Z,41.00
2023-03-03T07:37:36.058Z,41.20
2023-03-03T07:42:44.378Z,41.00
2023-03-03T07:47:51.672Z,34.60
2023-03-03T07:53:03.255Z,32.50
2023-03-03T07:58:06.730Z,31.20
2023-03-03T08:04:01.893Z,28.50
2023-03-03T08:09:02.511Z,30.60
2023-03-03T08:13:55.809Z,31.00
2023-03-03T08:18:50.997Z,29.10
2023-03-03T08:24:00.176Z,29.00
2023-03-03T08:30:03.767Z,29.50
2023-03-03T08:35:15.299Z,31.10
2023-03-03T08:40:28.336Z,32.80
2023-03-03T08:45:21.759Z,33.40
2023-03-03T08:50:35.053Z,30.70
2023-03-03T08:55:27.982Z,33.30
2023-03-03T09:00:23.642Z,33.60
2023-03-03T09:05:25.472Z,29.50
2023-03-03T09:10:39.424Z,25.70
2023-03-03T09:15:51.221Z,24.00
2023-03-03T09:20:58.587Z,22.80
2023-03-03T09:25:56.212Z,25.50
2023-03-03T09:31:07.119Z,25.30
2023-03-03T09:36:29.544Z,22.50
2023-03-03T09:41:28.636Z,23.30
2023-03-03T09:46:52.837Z,26.70
2023-03-03T09:51:45.637Z,25.00
2023-03-03T09:56:51.269Z,23.20
2023-03-03T10:02:22.980Z,24.00
2023-03-03T10:07:37.844Z,27.20
2023-03-03T10:12:36.890Z,26.00
2023-03-03T10:17:47.124Z,26.70
2023-03-03T10:23:08.991Z,26.40
2023-03-03T10:28:27.179Z,27.70
2023-03-03T10:39:01.829Z,18.90
2023-03-03T10:44:00.932Z,29.40
2023-03-03T10:48:56.753Z,27.70
2023-03-03T10:54:23.936Z,22.20
2023-03-03T10:59:45.282Z,24.10
2023-03-03T11:04:50.311Z,25.70
2023-03-03T11:09:58.615Z,25.20
2023-03-03T11:15:10.993Z,23.70
2023-03-03T11:20:34.591Z,27.10
2023-03-03T11:25:56.726Z,24.10
2023-03-03T11:31:17.197Z,24.70
2023-03-03T11:36:19.706Z,26.60
2023-03-03T11:41:51.040Z,24.20
2023-03-03T11:46:54.415Z,23.60
2023-03-03T11:52:06.260Z,19.30
2023-03-03T11:57:44.017Z,18.80
2023-03-03T12:03:01.908Z,20.90
2023-03-03T12:08:20.756Z,17.60
2023-03-03T12:13:29.897Z,21.50
2023-03-03T12:19:29.938Z,20.10
2023-03-03T12:24:44.395Z,20.40
2023-03-03T12:29:48.047Z,18.50
2023-03-03T12:35:09.000Z,20.10
2023-03-03T12:40:33.250Z,20.20
2023-03-03T12:45:53.781Z,14.70
2023-03-03T12:51:24.632Z,17.60
2023-03-03T12:56:36.847Z,18.00
2023-03-03T13:01:46.105Z,17.20
2023-03-03T13:07:02.178Z,17.20
2023-03-03T13:11:55.098Z,16.30
2023-03-03T13:17:03.233Z,15.60
2023-03-03T13:22:11.032Z,14.00
2023-03-03T13:27:16.141Z,15.60
2023-03-03T13:32:25.739Z,19.30
2023-03-03T13:37:36.768Z,17.60
2023-03-03T13:42:34.704Z,20.30
2023-03-03T13:47:49.323Z,19.90
2023-03-03T13:53:15.262Z,19.50
2023-03-03T13:58:45.291Z,16.70
2023-03-03T14:03:59.104Z,20.90
2023-03-03T14:09:16.723Z,15.50
2023-03-03T14:14:31.079Z,16.50
2023-03-03T14:19:36.563Z,16.50
2023-03-03T14:24:29.438Z,17.70
2023-03-03T14:29:29.734Z,20.60
2023-03-03T14:34:35.200Z,12.40
2023-03-03T14:39:35.157Z,17.30
2023-03-03T14:44:36.812Z,19.10
2023-03-03T14:49:34.756Z,19.10
2023-03-03T14:54:31.448Z,17.40
2023-03-03T14:59:27.127Z,20.80
2023-03-03T15:04:31.041Z,18.80
2023-03-03T15:09:43.293Z,17.40
2023-03-03T15:14:46.754Z,15.60
2023-03-03T15:19:49.761Z,13.90
2023-03-03T15:24:51.652Z,18.20
2023-03-03T15:30:14.003Z,18.90
2023-03-03T15:35:24.647Z,18.30
2023-03-03T15:40:36.453Z,20.00
2023-03-03T15:45:35.469Z,18.00
2023-03-03T15:51:00.432Z,18.80
2023-03-03T15:56:13.469Z,16.50
2023-03-03T16:01:10.702Z,14.30
2023-03-03T16:06:17.904Z,17.10
2023-03-03T16:11:31.609Z,14.90
2023-03-03T16:16:31.053Z,16.10
2023-03-03T16:21:45.238Z,16.00
2023-03-03T16:26:47.588Z,15.10
2023-03-03T16:32:23.619Z,17.00
2023-03-03T16:37:28.244Z,17.80
2023-03-03T16:42:34.466Z,15.60
2023-03-03T16:47:39.682Z,16.30
2023-03-03T16:52:44.493Z,15.90
2023-03-03T16:57:59.452Z,18.10
2023-03-03T17:03:10.670Z,18.20
2023-03-03T17:08:13.347Z,21.10
2023-03-03T17:13:21.459Z,21.90
2023-03-03T17:18:41.313Z,17.80
2023-03-03T17:23:51.266Z,17.60
2023-03-03T17:29:01.809Z,17.80
2023-03-03T17:34:06.937Z,19.20
2023-03-03T17:39:27.668Z,20.00
2023-03-03T17:44:42.127Z,20.00
2023-03-03T17:50:07.009Z,18.40
2023-03-03T17:55:31.442Z,17.10
2023-03-03T18:00:48.975Z,18.20
2023-03-03T18:05:50.829Z,19.90
2023-03-03T18:11:02.259Z,22.10
2023-03-03T18:16:20.050Z,20.70
2023-03-03T18:21:19.168Z,19.30
2023-03-03T18:26:39.432Z,20.30
2023-03-03T18:31:44.909Z,16.80
2023-03-03T18:36:52.098Z,19.50
2023-03-03T18:42:32.541Z,18.70
2023-03-03T18:48:02.470Z,21.70
2023-03-03T18:53:15.889Z,19.40
2023-03-03T18:58:14.719Z,23.00
2023-03-03T19:03:28.841Z,21.40
2023-03-03T19:08:54.432Z,20.80
2023-03-03T19:13:50.123Z,22.60
2023-03-03T19:18:43.200Z,21.30
2023-03-03T19:24:00.224Z,20.30
2023-03-03T19:29:21.117Z,20.10
2023-03-03T19:34:23.537Z,21.20
2023-03-03T19:39:50.526Z,19.60
2023-03-03T19:45:17.707Z,19.30
2023-03-03T19:50:34.621Z,14.60
2023-03-03T19:55:36.548Z,18.20
2023-03-03T20:00:36.465Z,23.10
2023-03-03T20:05:47.886Z,21.90
2023-03-03T20:11:05.644Z,24.20
2023-03-03T20:16:23.222Z,21.50
2023-03-03T20:21:20.899Z,19.50
2023-03-03T20:26:41.257Z,23.90
2023-03-03T20:31:46.060Z,21.90
2023-03-03T20:36:49.299Z,21.70
2023-03-03T20:42:06.779Z,24.40
2023-03-03T20:47:10.867Z,22.50
2023-03-03T20:52:15.619Z,22.50
2023-03-03T20:57:14.155Z,19.10
2023-03-03T21:02:09.982Z,26.30
2023-03-03T21:07:04.805Z,24.10
2023-03-03T21:11:58.974Z,24.80
2023-03-03T21:16:53.987Z,25.10
2023-03-03T21:21:50.611Z,26.10
2023-03-03T21:26:53.713Z,24.00
2023-03-03T21:31:55.313Z,25.20
2023-03-03T21:36:50.419Z,21.40
2023-03-03T21:42:14.595Z,26.40
2023-03-03T21:47:12.991Z,24.70
2023-03-03T21:52:06.206Z,25.20
2023-03-03T21:56:58.923Z,21.70
2023-03-03T22:01:51.591Z,23.30
2023-03-03T22:06:45.619Z,25.20
2023-03-03T22:11:39.656Z,25.40
2023-03-03T22:16:32.632Z,20.20
2023-03-03T22:21:25.402Z,23.20
2023-03-03T22:26:18.782Z,25.60
2023-03-03T22:31:11.467Z,20.90
2023-03-03T22:36:04.695Z,22.70
2023-03-03T22:40:57.375Z,23.00
2023-03-03T22:45:50.641Z,18.30
2023-03-03T22:50:45.254Z,20.10
2023-03-03T22:55:38.222Z,20.10
2023-03-03T23:00:31.673Z,19.60
2023-03-03T23:05:24.553Z,17.40
2023-03-03T23:10:17.593Z,17.20
2023-03-03T23:15:13.358Z,19.50
2023-03-03T23:20:07.132Z,21.00
2023-03-03T23:24:59.826Z,19.20
2023-03-03T23:29:52.848Z,19.10
2023-03-03T23:34:45.530Z,20.00
2023-03-03T23:39:38.181Z,20.70
2023-03-03T23:44:31.487Z,17.10
2023-03-03T23:49:24.475Z,18.50
2023-03-03T23:54:18.193Z,18.40
2023-03-03T23:59:10.905Z,18.20
